Time;durP1;ratioP1;P1;durP2;ratioP2;P2;SDS_P1;SDS_P2;PMS_P1;PMS_P2;Temp;Humidity;BMP_temperature;BMP_pressure;BME280_temperature;BME280_humidity;BME280_pressure;Samples;Min_cycle;Max_cycle;Signal;HPM_P1;HPM_P2
2023/02/01 00:02:01;;;;;;;9.13;4.80;;;3.60;99.90;;;;;;5023873;28;20040;-82
2023/02/01 00:04:27;;;;;;;5.83;4.13;;;3.50;99.90;;;;;;5023578;28;20148;-81
2023/02/01 00:06:53;;;;;;;7.93;3.93;;;3.50;99.90;;;;;;5022116;28;20991;-81
2023/02/01 00:09:18;;;;;;;8.03;4.00;;;3.50;99.90;;;;;;5023824;28;20124;-82
2023/02/01 00:11:44;;;;;;;7.03;4.17;;;3.50;99.90;;;;;;5025052;28;20128;-81
2023/02/01 00:14:10;;;;;;;6.93;3.97;;;3.50;99.90;;;;;;5022951;28;20111;-82
2023/02/01 00:16:36;;;;;;;6.77;4.37;;;3.50;99.90;;;;;;5025128;28;20029;-81
2023/02/01 00:19:05;;;;;;;6.27;3.70;;;3.60;99.90;;;;;;5022612;28;20056;-81
2023/02/01 00:21:31;;;;;;;6.40;4.10;;;3.50;99.90;;;;;;5024294;28;20999;-81
2023/02/01 00:23:57;;;;;;;5.53;3.80;;;3.50;99.90;;;;;;5024611;28;20052;-81
2023/02/01 00:26:31;;;;;;;7.03;4.10;;;3.50;99.90;;;;;;5024551;28;20033;-81
2023/02/01 00:28:57;;;;;;;7.97;4.17;;;3.50;99.90;;;;;;5023923;28;20067;-82
2023/02/01 00:31:22;;;;;;;5.87;4.17;;;3.50;99.90;;;;;;5024203;28;20041;-81
2023/02/01 00:33:48;;;;;;;6.40;3.87;;;3.50;99.90;;;;;;5025400;28;20037;-81
2023/02/01 00:36:14;;;;;;;6.20;4.10;;;3.50;99.90;;;;;;5027882;28;20033;-82
2023/02/01 00:38:40;;;;;;;8.97;4.33;;;3.50;99.90;;;;;;5027770;28;20042;-81
2023/02/01 00:41:17;;;;;;;11.60;5.40;;;3.50;99.90;;;;;;5027619;28;20730;-82
2023/02/01 00:43:44;;;;;;;8.20;4.67;;;3.60;99.90;;;;;;5027398;28;20386;-82
2023/02/01 00:46:11;;;;;;;7.50;4.80;;;3.60;99.90;;;;;;5027102;28;20029;-82
2023/02/01 00:48:42;;;;;;;7.23;5.10;;;3.50;99.90;;;;;;5027524;28;20415;-82
2023/02/01 00:51:10;;;;;;;9.07;5.50;;;3.50;99.90;;;;;;5027526;28;20039;-83
2023/02/01 00:53:36;;;;;;;7.33;5.20;;;3.40;99.90;;;;;;5027119;28;20444;-82
2023/02/01 00:56:03;;;;;;;7.03;5.27;;;3.30;99.90;;;;;;5026385;28;20048;-82
2023/02/01 00:58:28;;;;;;;10.47;6.23;;;3.30;99.90;;;;;;5026132;28;20039;-81
2023/02/01 01:01:21;;;;;;;7.23;5.17;;;3.20;99.90;;;;;;5026509;28;20080;-82
2023/02/01 01:03:53;;;;;;;8.57;5.63;;;3.20;99.90;;;;;;5026306;28;20049;-82
2023/02/01 01:06:31;;;;;;;7.93;5.43;;;3.20;99.90;;;;;;5026750;28;20056;-81
2023/02/01 01:09:00;;;;;;;9.33;5.80;;;3.20;99.90;;;;;;5025758;28;20046;-82
2023/02/01 01:11:31;;;;;;;11.17;5.87;;;3.20;99.90;;;;;;5026293;28;20033;-82
2023/02/01 01:13:57;;;;;;;7.80;5.40;;;3.20;99.90;;;;;;5025225;28;20043;-82
2023/02/01 01:16:25;;;;;;;10.50;6.53;;;3.20;99.90;;;;;;5025395;28;20129;-82
2023/02/01 01:18:51;;;;;;;11.17;6.00;;;3.10;99.90;;;;;;5026827;28;20065;-82
2023/02/01 01:21:17;;;;;;;9.43;5.33;;;3.20;99.90;;;;;;5026053;28;20072;-82
2023/02/01 01:23:44;;;;;;;9.70;6.10;;;3.30;99.90;;;;;;5026370;28;20108;-82
2023/02/01 01:26:15;;;;;;;8.63;5.40;;;3.30;99.90;;;;;;5026685;28;20037;-82
2023/02/01 01:28:41;;;;;;;10.60;6.23;;;3.20;99.90;;;;;;5026328;28;20024;-82
2023/02/01 01:31:15;;;;;;;10.03;6.20;;;3.20;99.90;;;;;;5025819;28;20029;-82
2023/02/01 01:33:41;;;;;;;9.63;5.90;;;3.20;99.90;;;;;;5024716;28;20028;-83
2023/02/01 01:36:10;;;;;;;9.77;6.83;;;3.20;99.90;;;;;;5025613;28;20131;-82
2023/02/01 01:38:39;;;;;;;9.87;6.10;;;3.20;99.90;;;;;;5026451;28;20079;-82
2023/02/01 01:41:05;;;;;;;8.83;6.27;;;3.20;99.90;;;;;;5026936;28;20355;-82
2023/02/01 01:43:54;;;;;;;10.37;7.33;;;3.10;99.90;;;;;;5024149;28;20034;-83
2023/02/01 01:46:24;;;;;;;9.90;6.50;;;3.10;99.90;;;;;;5041144;28;20161;-82
2023/02/01 01:49:07;;;;;;;11.50;6.73;;;3.10;99.90;;;;;;5025585;28;20029;-82
2023/02/01 01:51:53;;;;;;;10.63;6.43;;;3.00;99.90;;;;;;5025559;28;20940;-82
2023/02/01 01:54:25;;;;;;;11.07;6.13;;;3.00;99.90;;;;;;5026214;28;20360;-82
2023/02/01 01:56:56;;;;;;;12.53;7.30;;;2.90;99.90;;;;;;5026034;28;20029;-83
2023/02/01 01:59:24;;;;;;;10.50;7.37;;;2.90;99.90;;;;;;5025484;28;20127;-82
2023/02/01 02:01:50;;;;;;;11.20;6.83;;;2.90;99.90;;;;;;5023799;28;20025;-82
2023/02/01 02:04:16;;;;;;;11.20;7.40;;;2.90;99.90;;;;;;5026338;28;20545;-81
2023/02/01 02:06:55;;;;;;;9.23;6.83;;;2.90;99.90;;;;;;5026196;28;20040;-82
2023/02/01 02:09:21;;;;;;;12.17;6.83;;;2.80;99.90;;;;;;5023656;28;20117;-82
2023/02/01 02:11:47;;;;;;;10.43;7.37;;;2.80;99.90;;;;;;5025470;28;20064;-82
2023/02/01 02:14:14;;;;;;;11.30;6.97;;;2.80;99.90;;;;;;5023873;28;20140;-82
2023/02/01 02:16:52;;;;;;;10.37;7.10;;;2.90;99.90;;;;;;5025873;28;20021;-82
2023/02/01 02:19:26;;;;;;;11.13;7.20;;;2.80;99.90;;;;;;5023660;28;20026;-82
2023/02/01 02:22:11;;;;;;;12.88;7.45;;;2.80;99.90;;;;;;5024260;28;20029;-82
2023/02/01 02:24:52;;;;;;;11.00;5.60;;;2.80;99.90;;;;;;5024653;28;20025;-82
2023/02/01 02:27:40;;;;;;;13.30;7.27;;;2.80;99.90;;;;;;5024258;28;20033;-82
2023/02/01 02:30:34;;;;;;;10.17;6.87;;;2.80;99.90;;;;;;5026380;28;20035;-82
2023/02/01 02:33:02;;;;;;;10.30;6.30;;;2.90;99.90;;;;;;5027038;28;20030;-82
2023/02/01 02:36:00;;;;;;;11.63;7.00;;;2.90;99.90;;;;;;5029078;28;20033;-82
2023/02/01 02:38:40;;;;;;;9.53;6.43;;;2.80;99.90;;;;;;5029965;28;20037;-82
2023/02/01 02:47:26;;;;;;;12.53;6.47;;;2.80;99.90;;;;;;5026346;28;20120;-82
2023/02/01 02:55:35;;;;;;;8.77;5.10;;;2.90;99.90;;;;;;5025095;28;20040;-82
2023/02/01 03:06:23;;;;;;;9.10;5.43;;;2.90;99.90;;;;;;5024674;28;21227;-82
2023/02/01 03:08:53;;;;;;;8.53;5.63;;;3.00;99.90;;;;;;5024409;28;20061;-82
2023/02/01 03:11:20;;;;;;;10.43;6.13;;;3.00;99.90;;;;;;5024600;28;20075;-82
2023/02/01 03:13:56;;;;;;;9.83;5.37;;;3.00;99.90;;;;;;5024107;28;20108;-82
2023/02/01 03:16:33;;;;;;;9.07;5.80;;;3.00;99.90;;;;;;5024254;28;20029;-82
2023/02/01 03:19:10;;;;;;;10.17;5.53;;;3.00;99.90;;;;;;5024522;28;20030;-82
2023/02/01 03:21:51;;;;;;;7.97;5.13;;;3.00;99.90;;;;;;5027691;28;20029;-82
2023/02/01 03:24:32;;;;;;;6.60;4.60;;;3.00;99.90;;;;;;5026713;28;20076;-82
2023/02/01 03:27:04;;;;;;;11.00;5.10;;;3.00;99.90;;;;;;5024886;28;20040;-82
2023/02/01 03:29:40;;;;;;;8.13;5.47;;;3.00;99.90;;;;;;5023670;28;20044;-82
2023/02/01 03:32:05;;;;;;;10.18;5.57;;;3.00;99.90;;;;;;5024139;28;20037;-82
2023/02/01 03:34:31;;;;;;;8.63;5.23;;;3.00;99.90;;;;;;5024077;28;20383;-82
2023/02/01 03:37:05;;;;;;;11.57;6.50;;;3.00;99.90;;;;;;5023046;28;20032;-83
2023/02/01 03:39:49;;;;;;;8.50;5.03;;;3.00;99.90;;;;;;5022651;28;20433;-82
2023/02/01 03:42:19;;;;;;;7.47;5.50;;;3.00;99.90;;;;;;5023121;28;20034;-82
2023/02/01 03:44:44;;;;;;;7.03;5.43;;;2.90;99.90;;;;;;5023854;28;20120;-82
2023/02/01 03:47:15;;;;;;;8.37;5.23;;;2.90;99.90;;;;;;5024622;28;20417;-82
2023/02/01 03:49:49;;;;;;;7.13;4.77;;;3.00;99.90;;;;;;5023702;28;20021;-82
2023/02/01 03:52:20;;;;;;;8.33;4.77;;;3.00;99.90;;;;;;5023765;28;20041;-82
2023/02/01 03:54:47;;;;;;;8.30;5.60;;;3.00;99.90;;;;;;5023552;28;20087;-81
2023/02/01 03:57:16;;;;;;;8.37;5.10;;;3.00;99.90;;;;;;5022948;28;20039;-82
2023/02/01 03:59:44;;;;;;;9.70;5.80;;;3.00;99.90;;;;;;5024073;28;20029;-82
2023/02/01 04:02:10;;;;;;;7.67;4.60;;;3.00;99.90;;;;;;5024048;28;20032;-82
2023/02/01 04:04:36;;;;;;;11.20;4.73;;;3.10;99.90;;;;;;5023773;28;20034;-82
2023/02/01 04:07:02;;;;;;;8.37;5.23;;;3.10;99.90;;;;;;5023491;28;20025;-82
2023/02/01 04:09:28;;;;;;;8.13;4.97;;;3.10;99.90;;;;;;5025881;28;20067;-82
2023/02/01 04:11:54;;;;;;;8.30;4.93;;;3.20;99.90;;;;;;5027589;28;20021;-82
2023/02/01 04:14:19;;;;;;;7.83;5.10;;;3.10;99.90;;;;;;5027826;28;20029;-82
2023/02/01 04:16:45;;;;;;;7.50;4.63;;;3.10;99.90;;;;;;5027207;28;20026;-82
2023/02/01 04:19:11;;;;;;;8.07;5.03;;;3.10;99.90;;;;;;5027169;28;20169;-82
2023/02/01 04:21:36;;;;;;;8.43;5.17;;;3.20;99.90;;;;;;5027849;28;20025;-81
2023/02/01 04:24:02;;;;;;;11.67;5.03;;;3.10;99.90;;;;;;5027999;28;20028;-82
2023/02/01 04:26:28;;;;;;;6.87;4.83;;;3.10;99.90;;;;;;5027463;28;20037;-81
2023/02/01 04:28:53;;;;;;;10.60;5.03;;;3.10;99.90;;;;;;5026927;28;20395;-81
2023/02/01 04:31:25;;;;;;;9.50;5.27;;;3.00;99.90;;;;;;5027421;28;20363;-81
2023/02/01 04:33:57;;;;;;;7.23;5.20;;;3.00;99.90;;;;;;5027519;28;20044;-82
2023/02/01 04:36:23;;;;;;;11.07;5.47;;;3.00;99.90;;;;;;5026741;28;20033;-81
2023/02/01 04:38:49;;;;;;;7.67;4.90;;;3.00;99.90;;;;;;5027302;28;20053;-81
2023/02/01 04:41:18;;;;;;;7.23;5.23;;;3.00;99.90;;;;;;5026540;28;20108;-82
2023/02/01 04:43:47;;;;;;;8.27;5.47;;;3.00;99.90;;;;;;5025551;28;20519;-82
2023/02/01 04:46:13;;;;;;;8.13;5.73;;;2.90;99.90;;;;;;5024808;28;20438;-82
2023/02/01 04:48:38;;;;;;;10.97;5.63;;;3.00;99.90;;;;;;5025393;28;20072;-82
2023/02/01 04:51:04;;;;;;;11.87;5.53;;;3.00;99.90;;;;;;5026229;28;20036;-81
2023/02/01 04:53:30;;;;;;;8.80;5.27;;;3.00;99.90;;;;;;5025581;28;20021;-82
2023/02/01 04:55:55;;;;;;;9.20;5.33;;;3.00;99.90;;;;;;5027011;28;20119;-81
2023/02/01 04:58:21;;;;;;;7.97;5.43;;;3.00;99.90;;;;;;5027128;28;20815;-82
2023/02/01 05:00:47;;;;;;;8.50;5.83;;;3.00;99.90;;;;;;5026948;28;20564;-81
2023/02/01 05:03:13;;;;;;;8.63;5.50;;;3.00;99.90;;;;;;5025188;28;20037;-81
2023/02/01 05:05:39;;;;;;;9.87;5.53;;;3.00;99.90;;;;;;5026603;28;20037;-82
2023/02/01 05:08:04;;;;;;;8.47;5.63;;;3.00;99.90;;;;;;5025014;28;20654;-81
2023/02/01 05:10:30;;;;;;;7.63;5.30;;;3.10;99.90;;;;;;5025637;28;20033;-82
2023/02/01 05:15:39;;;;;;;7.77;5.00;;;3.10;99.90;;;;;;5026115;28;20040;-82
2023/02/01 05:18:05;;;;;;;9.07;5.43;;;3.10;99.90;;;;;;5028174;28;20394;-82
2023/02/01 05:20:31;;;;;;;9.40;5.93;;;3.10;99.90;;;;;;5024966;28;20029;-82
2023/02/01 05:22:56;;;;;;;10.20;5.77;;;3.00;99.90;;;;;;5024568;28;20044;-84
2023/02/01 05:25:22;;;;;;;8.97;5.70;;;3.10;99.90;;;;;;5026044;28;20029;-84
2023/02/01 05:27:47;;;;;;;7.10;4.97;;;3.10;99.90;;;;;;5023984;28;20032;-84
2023/02/01 05:30:13;;;;;;;9.77;5.30;;;3.10;99.90;;;;;;5025603;28;20040;-84
2023/02/01 05:32:39;;;;;;;7.97;5.47;;;3.10;99.90;;;;;;5026000;28;20049;-85
2023/02/01 05:35:05;;;;;;;8.93;5.27;;;3.10;99.90;;;;;;5023179;28;20061;-85
2023/02/01 05:37:30;;;;;;;10.13;6.30;;;3.10;99.90;;;;;;5025358;28;20124;-85
2023/02/01 05:39:56;;;;;;;10.87;6.70;;;3.10;99.90;;;;;;5025846;28;20037;-85
2023/02/01 05:42:21;;;;;;;11.43;6.40;;;3.10;99.90;;;;;;5024922;28;20041;-85
2023/02/01 05:44:47;;;;;;;9.90;5.57;;;3.10;99.90;;;;;;5025349;28;20038;-85
2023/02/01 05:47:13;;;;;;;8.00;5.80;;;3.10;99.90;;;;;;5023525;28;20105;-85
2023/02/01 05:49:38;;;;;;;7.87;5.43;;;3.10;99.90;;;;;;5024779;28;20030;-84
2023/02/01 05:52:04;;;;;;;8.13;5.90;;;3.10;99.90;;;;;;5024895;28;20057;-85
2023/02/01 05:54:30;;;;;;;10.50;6.07;;;3.10;99.90;;;;;;5024403;28;20022;-85
2023/02/01 05:56:55;;;;;;;7.57;5.43;;;3.10;99.90;;;;;;5024624;28;20041;-82
2023/02/01 05:59:21;;;;;;;8.73;5.77;;;3.20;99.90;;;;;;5021966;28;20040;-83
2023/02/01 06:01:47;;;;;;;8.93;5.73;;;3.20;99.90;;;;;;5024306;28;20561;-83
2023/02/01 06:04:12;;;;;;;9.47;5.20;;;3.30;99.90;;;;;;5023224;28;20033;-83
2023/02/01 06:06:38;;;;;;;7.67;5.57;;;3.30;99.90;;;;;;5023261;28;20938;-83
2023/02/01 06:09:03;;;;;;;8.33;5.50;;;3.30;99.90;;;;;;5023028;28;20041;-83
2023/02/01 06:11:29;;;;;;;8.50;5.50;;;3.30;99.90;;;;;;5023625;28;20052;-83
2023/02/01 06:13:55;;;;;;;10.53;5.87;;;3.30;99.90;;;;;;5022773;28;20104;-83
2023/02/01 06:16:21;;;;;;;9.70;6.27;;;3.20;99.90;;;;;;5022006;28;20115;-83
2023/02/01 06:18:47;;;;;;;9.70;5.37;;;3.20;99.90;;;;;;5023930;28;20036;-83
2023/02/01 06:21:23;;;;;;;8.17;4.90;;;3.20;99.90;;;;;;5025325;28;20087;-83
2023/02/01 06:23:52;;;;;;;7.20;5.20;;;3.20;99.90;;;;;;5029832;28;20021;-78
2023/02/01 06:26:17;;;;;;;9.63;5.77;;;3.20;99.90;;;;;;5044011;28;20025;-78
2023/02/01 06:28:44;;;;;;;7.87;5.50;;;3.20;99.90;;;;;;5051244;28;20505;-77
2023/02/01 06:31:10;;;;;;;9.17;6.43;;;3.20;99.90;;;;;;5041747;28;20040;-78
2023/02/01 06:33:36;;;;;;;8.40;5.77;;;3.20;99.90;;;;;;5044633;28;20025;-78
2023/02/01 06:36:04;;;;;;;8.10;5.77;;;3.20;99.90;;;;;;5038902;28;20698;-78
2023/02/01 06:38:30;;;;;;;9.43;5.90;;;3.10;99.90;;;;;;5033287;28;20033;-83
2023/02/01 06:40:57;;;;;;;8.53;5.87;;;3.20;99.90;;;;;;5020925;28;20457;-83
2023/02/01 06:43:25;;;;;;;7.73;5.43;;;3.20;99.90;;;;;;5023222;28;20037;-83
2023/02/01 06:45:51;;;;;;;8.73;5.60;;;3.30;99.90;;;;;;5021650;28;20040;-83
2023/02/01 06:48:17;;;;;;;10.03;6.03;;;3.30;99.90;;;;;;5024614;28;20037;-82
2023/02/01 06:50:43;;;;;;;7.50;5.20;;;3.30;99.90;;;;;;5023655;28;20029;-83
2023/02/01 06:53:30;;;;;;;12.03;5.40;;;3.30;99.90;;;;;;5025578;28;20037;-78
2023/02/01 06:56:01;;;;;;;7.30;5.03;;;3.30;99.90;;;;;;5032034;28;20044;-83
2023/02/01 06:58:31;;;;;;;6.97;4.80;;;3.40;99.90;;;;;;5030715;28;20044;-83
2023/02/01 07:00:57;;;;;;;6.73;4.83;;;3.40;99.90;;;;;;5030197;28;20048;-81
2023/02/01 07:03:23;;;;;;;8.47;5.97;;;3.40;99.90;;;;;;5028382;28;20379;-82
2023/02/01 07:05:48;;;;;;;10.53;4.83;;;3.40;99.90;;;;;;5027582;28;20033;-84
2023/02/01 07:08:14;;;;;;;7.53;4.90;;;3.30;99.90;;;;;;5024700;28;20057;-82
2023/02/01 07:10:39;;;;;;;10.53;5.07;;;3.40;99.90;;;;;;5024941;28;20765;-82
2023/02/01 07:13:13;;;;;;;8.37;5.87;;;3.40;99.90;;;;;;5022866;28;20036;-82
2023/02/01 07:15:41;;;;;;;7.13;4.50;;;3.50;99.90;;;;;;5025182;28;20105;-81
2023/02/01 07:18:06;;;;;;;8.27;4.27;;;3.50;99.90;;;;;;5022662;28;20056;-83
2023/02/01 07:20:36;;;;;;;7.63;4.63;;;3.50;99.90;;;;;;5027448;28;20160;-83
2023/02/01 07:23:02;;;;;;;6.83;4.07;;;3.60;99.90;;;;;;5024188;28;20033;-83
2023/02/01 07:25:28;;;;;;;8.33;4.53;;;3.60;99.90;;;;;;5023765;28;20454;-83
2023/02/01 07:27:53;;;;;;;6.50;4.20;;;3.70;99.90;;;;;;5022436;28;20060;-84
2023/02/01 07:30:21;;;;;;;5.93;4.07;;;3.70;99.90;;;;;;5023569;28;20359;-83
2023/02/01 07:32:49;;;;;;;6.13;3.93;;;3.70;99.90;;;;;;5023341;28;20052;-83
2023/02/01 07:35:15;;;;;;;7.90;3.97;;;3.70;99.90;;;;;;5022594;28;20044;-84
2023/02/01 07:37:40;;;;;;;5.43;3.87;;;3.60;99.90;;;;;;5022851;28;20061;-83
2023/02/01 07:40:06;;;;;;;8.07;3.97;;;3.60;99.90;;;;;;5022794;28;20056;-82
2023/02/01 07:42:32;;;;;;;7.07;3.50;;;3.60;99.90;;;;;;5023672;28;20029;-82
2023/02/01 07:44:57;;;;;;;6.53;3.60;;;3.60;99.90;;;;;;5027338;28;20056;-82
2023/02/01 07:47:23;;;;;;;5.80;4.07;;;3.60;99.90;;;;;;5027079;28;20029;-82
2023/02/01 07:49:49;;;;;;;5.70;3.60;;;3.60;99.90;;;;;;5027018;28;20021;-82
2023/02/01 07:52:17;;;;;;;6.37;3.57;;;3.70;99.90;;;;;;5027572;28;20040;-82
2023/02/01 07:54:43;;;;;;;7.57;3.80;;;3.70;99.90;;;;;;5026823;28;20037;-81
2023/02/01 07:57:11;;;;;;;6.43;3.50;;;3.80;99.90;;;;;;5025908;28;20101;-82
2023/02/01 08:01:19;;;;;;;4.57;2.80;;;3.90;99.90;;;;;;5026960;28;20033;-82
2023/02/01 08:02:22;;;;;;;5.00;3.13;;;4.00;99.90;;;;;;5026808;28;20076;-83
2023/02/01 08:04:48;;;;;;;4.93;3.17;;;4.00;99.90;;;;;;5026777;28;20486;-83
2023/02/01 08:07:13;;;;;;;4.47;3.13;;;4.00;99.90;;;;;;5026644;28;20036;-82
2023/02/01 08:09:39;;;;;;;3.97;3.03;;;4.10;99.90;;;;;;5026487;28;20147;-82
2023/02/01 08:12:04;;;;;;;5.80;3.73;;;4.10;99.90;;;;;;5025102;28;20033;-82
2023/02/01 08:14:30;;;;;;;10.57;4.13;;;4.10;99.90;;;;;;5024972;28;20040;-82
2023/02/01 08:16:55;;;;;;;4.17;2.93;;;4.10;99.90;;;;;;5025799;28;20033;-82
2023/02/01 08:19:21;;;;;;;5.20;3.40;;;4.20;99.90;;;;;;5026438;28;20056;-82
2023/02/01 08:21:48;;;;;;;4.63;2.77;;;4.20;99.90;;;;;;5026067;28;20041;-82
2023/02/01 08:24:14;;;;;;;4.50;3.10;;;4.20;99.90;;;;;;5025757;28;20025;-82
2023/02/01 08:26:39;;;;;;;4.70;2.67;;;4.20;99.90;;;;;;5024827;28;20025;-82
2023/02/01 08:29:07;;;;;;;5.30;3.57;;;4.30;99.90;;;;;;5026030;28;20025;-82
2023/02/01 08:31:32;;;;;;;4.97;3.17;;;4.30;99.90;;;;;;5026211;28;20119;-83
2023/02/01 08:34:00;;;;;;;5.33;2.90;;;4.30;99.90;;;;;;5026288;28;20029;-83
2023/02/01 08:36:28;;;;;;;4.13;2.57;;;4.40;99.90;;;;;;5025363;28;20026;-82
2023/02/01 08:38:53;;;;;;;3.53;2.73;;;4.50;99.90;;;;;;5025089;28;20040;-83
2023/02/01 08:41:25;;;;;;;5.23;2.90;;;4.50;99.90;;;;;;5026365;28;20029;-83
2023/02/01 08:43:50;;;;;;;5.80;3.13;;;4.60;99.90;;;;;;5025795;28;20233;-82
2023/02/01 08:46:16;;;;;;;5.70;2.63;;;4.60;99.90;;;;;;5024552;28;20029;-82
2023/02/01 08:48:42;;;;;;;5.23;2.77;;;4.60;99.90;;;;;;5025052;28;20033;-83
2023/02/01 08:51:11;;;;;;;5.47;3.00;;;4.60;99.90;;;;;;5026337;28;20029;-82
2023/02/01 08:53:39;;;;;;;3.67;2.67;;;4.60;99.90;;;;;;5025149;28;20057;-81
2023/02/01 08:56:06;;;;;;;5.37;2.93;;;4.70;99.90;;;;;;5025884;28;20032;-81
2023/02/01 08:58:32;;;;;;;4.67;2.97;;;4.80;99.90;;;;;;5025859;28;20463;-82
2023/02/01 09:01:06;;;;;;;4.63;2.83;;;4.70;99.90;;;;;;5026045;28;20033;-82
2023/02/01 09:03:32;;;;;;;8.53;2.87;;;4.70;99.90;;;;;;5025386;28;20029;-81
2023/02/01 09:06:02;;;;;;;6.03;2.80;;;4.80;99.90;;;;;;5025504;28;20025;-84
2023/02/01 09:08:28;;;;;;;5.43;2.30;;;4.80;99.90;;;;;;5025815;28;20053;-83
2023/02/01 09:10:53;;;;;;;6.53;2.87;;;4.90;99.90;;;;;;5025689;28;20524;-83
2023/02/01 09:13:19;;;;;;;6.30;2.83;;;4.90;99.90;;;;;;5025547;28;20044;-83
2023/02/01 09:15:45;;;;;;;5.90;2.80;;;5.00;99.90;;;;;;5025746;28;20033;-81
2023/02/01 09:18:10;;;;;;;4.37;2.80;;;5.00;99.90;;;;;;5025377;28;20713;-83
2023/02/01 09:20:37;;;;;;;4.20;2.80;;;4.90;99.90;;;;;;5024701;28;21437;-82
2023/02/01 09:23:02;;;;;;;3.93;2.40;;;4.90;99.90;;;;;;5024617;28;20421;-82
2023/02/01 09:25:28;;;;;;;5.53;2.87;;;4.90;99.90;;;;;;5025768;28;20041;-82
2023/02/01 09:27:53;;;;;;;4.73;2.93;;;4.90;99.90;;;;;;5024975;28;20036;-82
2023/02/01 09:30:19;;;;;;;4.87;2.67;;;4.90;99.90;;;;;;5025341;28;20055;-82
2023/02/01 09:32:45;;;;;;;5.20;2.77;;;5.00;99.90;;;;;;5025286;28;20530;-82
2023/02/01 09:35:10;;;;;;;4.60;2.53;;;5.10;99.90;;;;;;5025201;28;20021;-82
2023/02/01 09:37:37;;;;;;;8.67;3.37;;;5.10;99.90;;;;;;5024106;28;20822;-82
2023/02/01 09:40:04;;;;;;;5.37;3.00;;;5.10;99.90;;;;;;5025263;28;20119;-82
2023/02/01 09:42:35;;;;;;;4.13;2.37;;;5.20;99.90;;;;;;5023932;28;20775;-82
2023/02/01 09:45:31;;;;;;;4.30;2.90;;;5.30;99.90;;;;;;5024952;28;20033;-82
2023/02/01 09:48:00;;;;;;;;;;;5.20;99.90;;;;;;5024102;28;20041;-82
2023/02/01 09:50:38;;;;;;;5.37;2.80;;;5.20;99.90;;;;;;5023981;28;19924;-83
2023/02/01 09:53:22;;;;;;;5.73;2.80;;;5.20;99.90;;;;;;5023661;28;20774;-82
2023/02/01 09:55:54;;;;;;;6.27;2.87;;;5.20;99.90;;;;;;5024603;28;20039;-82
2023/02/01 09:58:32;;;;;;;7.67;3.30;;;5.10;99.90;;;;;;5024373;28;20059;-83
2023/02/01 10:01:00;;;;;;;5.03;3.00;;;5.10;99.90;;;;;;5024600;28;20093;-82
2023/02/01 10:03:32;;;;;;;6.53;3.10;;;5.10;99.90;;;;;;5022532;28;20109;-83
2023/02/01 10:06:16;;;;;;;5.63;3.20;;;5.10;99.90;;;;;;5024429;28;20025;-82
2023/02/01 10:09:13;;;;;;;6.90;3.37;;;5.30;99.90;;;;;;5023484;28;20080;-82
2023/02/01 10:11:49;;;;;;;4.77;3.10;;;5.20;99.90;;;;;;5024159;28;20025;-82
2023/02/01 10:14:42;;;;;;;6.97;3.70;;;5.10;99.90;;;;;;5039687;28;20480;-83
2023/02/01 10:17:32;;;;;;;6.57;3.50;;;5.00;99.90;;;;;;5024741;28;20033;-82
2023/02/01 10:20:19;;;;;;;7.27;3.23;;;5.00;99.90;;;;;;5024716;28;20021;-83
2023/02/01 10:22:49;;;;;;;7.30;3.20;;;5.10;99.90;;;;;;5024015;28;20029;-82
2023/02/01 10:25:17;;;;;;;6.47;3.00;;;5.10;99.90;;;;;;5023424;28;20034;-83
2023/02/01 10:27:43;;;;;;;6.17;3.10;;;5.00;99.90;;;;;;5024225;28;20025;-82
2023/02/01 10:30:12;;;;;;;4.47;2.87;;;5.00;99.90;;;;;;5022694;28;20045;-82
2023/02/01 10:32:40;;;;;;;7.90;3.00;;;5.00;99.90;;;;;;5022868;28;20025;-82
2023/02/01 10:35:15;;;;;;;5.43;3.07;;;4.90;99.90;;;;;;5023929;28;20037;-82
2023/02/01 10:37:44;;;;;;;5.65;3.00;;;5.00;99.90;;;;;;5023045;28;20060;-82
2023/02/01 10:40:25;;;;;;;5.27;3.07;;;5.00;99.90;;;;;;5023587;28;20112;-83
2023/02/01 10:43:09;;;;;;;6.37;2.60;;;5.00;99.90;;;;;;5024037;28;20022;-83
2023/02/01 10:45:42;;;;;;;5.73;2.87;;;5.00;99.90;;;;;;5022881;28;20032;-83
2023/02/01 10:48:08;;;;;;;4.90;2.97;;;5.00;99.90;;;;;;5024518;28;20025;-82
2023/02/01 10:50:36;;;;;;;6.50;3.00;;;5.00;99.90;;;;;;5025078;28;20056;-83
2023/02/01 10:53:25;;;;;;;4.60;2.80;;;5.00;99.90;;;;;;5017865;28;20063;-82
2023/02/01 10:55:55;;;;;;;6.00;2.90;;;5.00;99.90;;;;;;5025584;28;20490;-82
2023/02/01 10:58:28;;;;;;;4.63;2.87;;;5.00;99.90;;;;;;5024829;28;20481;-82
2023/02/01 11:01:06;;;;;;;6.60;3.17;;;5.00;99.90;;;;;;5035104;28;20061;-76
2023/02/01 11:03:52;;;;;;;4.17;3.20;;;5.00;99.90;;;;;;5043390;28;20021;-77
2023/02/01 11:06:21;;;;;;;8.30;3.27;;;5.00;99.90;;;;;;5046089;28;20031;-77
2023/02/01 11:08:59;;;;;;;8.07;3.37;;;5.10;99.90;;;;;;5042966;28;20026;-77
2023/02/01 11:11:25;;;;;;;6.60;3.63;;;5.00;99.90;;;;;;5040433;28;20021;-77
2023/02/01 11:14:01;;;;;;;7.70;3.87;;;5.10;99.90;;;;;;5034063;28;21078;-83
2023/02/01 11:16:36;;;;;;;7.33;3.40;;;5.20;99.90;;;;;;5035038;28;20021;-76
2023/02/01 11:19:01;;;;;;;5.38;3.20;;;5.10;99.90;;;;;;5040829;28;20021;-77
2023/02/01 11:21:27;;;;;;;5.93;3.30;;;5.10;99.90;;;;;;5041254;28;20037;-77
2023/02/01 11:23:53;;;;;;;8.70;3.97;;;5.10;99.90;;;;;;5024499;28;20122;-82
2023/02/01 11:26:27;;;;;;;9.43;3.77;;;5.00;99.90;;;;;;5021977;28;20497;-82
2023/02/01 11:29:01;;;;;;;6.03;3.63;;;5.00;99.90;;;;;;5027393;28;20030;-77
2023/02/01 11:31:27;;;;;;;10.33;4.00;;;5.10;99.90;;;;;;5046667;28;20049;-77
2023/02/01 11:33:59;;;;;;;5.20;3.20;;;5.00;99.90;;;;;;5041794;28;20071;-77
2023/02/01 11:36:30;;;;;;;7.70;3.83;;;5.00;99.90;;;;;;5035516;28;20074;-77
2023/02/01 11:39:14;;;;;;;7.73;3.50;;;4.90;99.90;;;;;;5040845;28;20120;-77
2023/02/01 11:41:54;;;;;;;6.03;3.20;;;4.90;99.90;;;;;;5039781;28;20036;-77
2023/02/01 11:44:41;;;;;;;5.97;4.03;;;4.80;99.90;;;;;;5039965;28;20477;-77
2023/02/01 11:47:21;;;;;;;5.80;3.07;;;4.70;99.90;;;;;;5032904;28;20034;-83
2023/02/01 11:49:49;;;;;;;7.60;3.70;;;4.70;99.90;;;;;;5033034;28;20025;-72
2023/02/01 11:52:40;;;;;;;6.83;4.07;;;4.70;99.90;;;;;;5021857;28;20021;-84
2023/02/01 11:55:39;;;;;;;9.50;4.70;;;4.70;99.90;;;;;;5022442;28;20056;-83
2023/02/01 11:58:42;;;;;;;6.63;4.33;;;4.70;99.90;;;;;;5021642;28;20496;-83
2023/02/01 12:01:26;;;;;;;7.63;4.20;;;4.70;99.90;;;;;;5022605;28;20084;-83
2023/02/01 12:04:19;;;;;;;8.93;4.43;;;4.70;99.90;;;;;;5020680;28;20041;-83
2023/02/01 12:06:54;;;;;;;8.33;4.50;;;4.80;99.90;;;;;;5024307;28;20179;-83
2023/02/01 12:09:45;;;;;;;6.20;3.80;;;4.80;99.90;;;;;;5020785;28;20049;-83
2023/02/01 12:12:26;;;;;;;8.73;4.50;;;4.80;99.90;;;;;;5031700;28;20036;-83
2023/02/01 12:14:51;;;;;;;7.13;3.67;;;4.80;99.90;;;;;;5026989;28;20022;-84
2023/02/01 12:17:41;;;;;;;8.27;4.00;;;4.90;99.90;;;;;;5026552;28;20038;-83
2023/02/01 12:20:21;;;;;;;8.63;4.20;;;4.90;99.90;;;;;;5024766;28;20108;-83
2023/02/01 12:22:49;;;;;;;7.27;4.40;;;4.90;99.90;;;;;;5023364;28;20064;-83
2023/02/01 12:25:30;;;;;;;8.20;4.20;;;4.80;99.90;;;;;;5023570;28;20037;-83
2023/02/01 12:28:12;;;;;;;5.67;3.90;;;4.70;99.90;;;;;;5027289;28;20443;-83
2023/02/01 12:31:23;;;;;;;5.93;3.37;;;4.60;99.90;;;;;;5028726;28;20612;-83
2023/02/01 12:34:06;;;;;;;11.13;4.47;;;4.60;99.90;;;;;;5027773;28;20090;-83
2023/02/01 12:36:46;;;;;;;7.43;3.97;;;4.60;99.90;;;;;;5025730;28;20076;-83
2023/02/01 12:39:20;;;;;;;6.80;3.57;;;4.50;99.90;;;;;;5041045;28;20047;-83
2023/02/01 12:41:56;;;;;;;10.30;3.67;;;4.60;99.90;;;;;;5024465;28;20030;-83
2023/02/01 12:44:59;;;;;;;10.53;3.80;;;4.50;99.90;;;;;;5030581;28;20032;-74
2023/02/01 12:47:42;;;;;;;11.30;4.43;;;4.70;99.90;;;;;;5042716;28;20036;-74
2023/02/01 12:50:25;;;;;;;5.97;3.40;;;4.60;99.90;;;;;;5031323;28;20025;-83
2023/02/01 12:52:53;;;;;;;12.17;3.80;;;4.60;99.90;;;;;;5026012;28;20413;-83
2023/02/01 12:55:41;;;;;;;9.60;3.73;;;4.60;99.90;;;;;;5024360;28;20086;-83
2023/02/01 12:58:18;;;;;;;8.23;2.97;;;4.60;99.90;;;;;;5029470;28;20028;-77
2023/02/01 13:00:49;;;;;;;7.60;3.17;;;4.60;99.90;;;;;;5039792;28;20485;-76
2023/02/01 13:03:17;;;;;;;7.50;3.20;;;4.60;99.90;;;;;;5036460;28;20041;-76
2023/02/01 13:05:58;;;;;;;13.07;3.50;;;4.70;99.90;;;;;;5039025;28;20030;-76
2023/02/01 13:08:39;;;;;;;9.83;3.90;;;4.80;99.90;;;;;;5039859;28;20033;-76
2023/02/01 13:11:17;;;;;;;9.10;3.50;;;4.70;99.90;;;;;;5042064;28;20029;-76
2023/02/01 13:14:28;;;;;;;7.00;3.77;;;4.80;99.90;;;;;;5038473;28;20045;-76
2023/02/01 13:17:01;;;;;;;6.10;3.70;;;4.80;99.90;;;;;;4979903;28;20041;-76
2023/02/01 13:20:02;;;;;;;7.47;3.83;;;4.80;99.90;;;;;;5030490;28;20438;-76
2023/02/01 13:22:43;;;;;;;6.30;3.67;;;4.80;99.90;;;;;;5009457;28;20044;-76
2023/02/01 13:25:34;;;;;;;7.50;3.93;;;4.80;99.90;;;;;;5039211;28;20151;-77
2023/02/01 13:28:11;;;;;;;6.70;3.53;;;4.70;99.90;;;;;;5040454;28;20029;-76
2023/02/01 13:30:47;;;;;;;7.37;4.37;;;4.70;99.90;;;;;;5039034;28;20029;-76
2023/02/01 13:33:32;;;;;;;6.70;3.37;;;4.70;99.90;;;;;;5043040;28;20029;-76
2023/02/01 13:36:23;;;;;;;6.37;3.43;;;4.70;99.90;;;;;;5044472;28;20017;-76
2023/02/01 13:39:25;;;;;;;8.70;3.77;;;4.60;99.90;;;;;;5039414;28;20100;-76
2023/02/01 13:41:56;;;;;;;53.50;19.40;;;4.60;99.90;;;;;;5040703;28;20022;-76